sensor_id;sensor_type;location;lat;lon;timestamp;temperature;humidity
11925;DHT22;6022;48.768;18.608;2023-07-22T00:00:53;18.40;99.90
11925;DHT22;6022;48.768;18.608;2023-07-22T00:03:23;18.30;99.90
11925;DHT22;6022;48.768;18.608;2023-07-22T00:06:06;18.40;99.90
11925;DHT22;6022;48.768;18.608;2023-07-22T00:08:39;18.50;99.90
11925;DHT22;6022;48.768;18.608;2023-07-22T00:11:13;18.30;99.90
11925;DHT22;6022;48.768;18.608;2023-07-22T00:13:40;18.50;99.90
11925;DHT22;6022;48.768;18.608;2023-07-22T00:16:10;18.40;99.90
11925;DHT22;6022;48.768;18.608;2023-07-22T00:18:49;18.40;99.90
11925;DHT22;6022;48.768;18.608;2023-07-22T00:21:17;18.60;99.90
11925;DHT22;6022;48.768;18.608;2023-07-22T00:23:45;18.10;99.90
11925;DHT22;6022;48.768;18.608;2023-07-22T00:26:23;18.60;99.90
11925;DHT22;6022;48.768;18.608;2023-07-22T00:28:55;19.10;99.90
11925;DHT22;6022;48.768;18.608;2023-07-22T00:31:27;18.30;99.90
11925;DHT22;6022;48.768;18.608;2023-07-22T00:33:57;18.40;99.90
11925;DHT22;6022;48.768;18.608;2023-07-22T00:36:49;18.00;99.90
11925;DHT22;6022;48.768;18.608;2023-07-22T00:39:16;18.20;99.90
11925;DHT22;6022;48.768;18.608;2023-07-22T00:41:47;18.30;99.90
11925;DHT22;6022;48.768;18.608;2023-07-22T00:44:20;18.20;99.90
11925;DHT22;6022;48.768;18.608;2023-07-22T00:46:47;18.20;99.90
11925;DHT22;6022;48.768;18.608;2023-07-22T00:49:17;18.20;99.90
11925;DHT22;6022;48.768;18.608;2023-07-22T00:51:49;18.20;99.90
11925;DHT22;6022;48.768;18.608;2023-07-22T00:54:21;18.10;99.90
11925;DHT22;6022;48.768;18.608;2023-07-22T00:56:48;18.20;99.90
11925;DHT22;6022;48.768;18.608;2023-07-22T00:59:16;18.10;99.90
11925;DHT22;6022;48.768;18.608;2023-07-22T01:01:44;18.00;99.90
11925;DHT22;6022;48.768;18.608;2023-07-22T01:04:15;17.90;99.90
11925;DHT22;6022;48.768;18.608;2023-07-22T01:06:50;18.00;99.90
11925;DHT22;6022;48.768;18.608;2023-07-22T01:09:20;18.20;99.90
11925;DHT22;6022;48.768;18.608;2023-07-22T01:11:47;18.00;99.90
11925;DHT22;6022;48.768;18.608;2023-07-22T01:14:17;18.20;99.90
11925;DHT22;6022;48.768;18.608;2023-07-22T01:16:44;17.60;99.90
11925;DHT22;6022;48.768;18.608;2023-07-22T01:19:25;18.00;99.90
11925;DHT22;6022;48.768;18.608;2023-07-22T01:21:55;18.00;99.90
11925;DHT22;6022;48.768;18.608;2023-07-22T01:24:28;18.00;99.90
11925;DHT22;6022;48.768;18.608;2023-07-22T01:26:56;18.00;99.90
11925;DHT22;6022;48.768;18.608;2023-07-22T01:29:25;17.80;99.90
11925;DHT22;6022;48.768;18.608;2023-07-22T01:31:54;18.00;99.90
11925;DHT22;6022;48.768;18.608;2023-07-22T01:34:26;18.00;99.90
11925;DHT22;6022;48.768;18.608;2023-07-22T01:36:54;17.40;99.90
11925;DHT22;6022;48.768;18.608;2023-07-22T01:39:21;17.70;99.90
11925;DHT22;6022;48.768;18.608;2023-07-22T01:41:49;17.90;99.90
11925;DHT22;6022;48.768;18.608;2023-07-22T01:44:16;17.90;99.90
11925;DHT22;6022;48.768;18.608;2023-07-22T01:46:53;18.00;99.90
11925;DHT22;6022;48.768;18.608;2023-07-22T01:49:28;18.00;99.90
11925;DHT22;6022;48.768;18.608;2023-07-22T01:51:56;18.10;99.90
11925;DHT22;6022;48.768;18.608;2023-07-22T01:54:34;18.00;99.90
11925;DHT22;6022;48.768;18.608;2023-07-22T01:57:01;18.00;99.90
11925;DHT22;6022;48.768;18.608;2023-07-22T01:59:31;17.90;99.90
11925;DHT22;6022;48.768;18.608;2023-07-22T02:01:58;17.90;99.90
11925;DHT22;6022;48.768;18.608;2023-07-22T02:04:28;17.60;99.90
11925;DHT22;6022;48.768;18.608;2023-07-22T02:07:01;17.80;99.90
11925;DHT22;6022;48.768;18.608;2023-07-22T02:09:40;18.20;99.90
11925;DHT22;6022;48.768;18.608;2023-07-22T02:12:09;18.20;99.90
11925;DHT22;6022;48.768;18.608;2023-07-22T02:14:40;17.80;99.90
11925;DHT22;6022;48.768;18.608;2023-07-22T02:17:08;18.00;99.90
11925;DHT22;6022;48.768;18.608;2023-07-22T02:19:36;18.00;99.90
11925;DHT22;6022;48.768;18.608;2023-07-22T02:22:04;17.80;99.90
11925;DHT22;6022;48.768;18.608;2023-07-22T02:24:32;18.00;99.90
11925;DHT22;6022;48.768;18.608;2023-07-22T02:27:01;18.00;99.90
11925;DHT22;6022;48.768;18.608;2023-07-22T02:29:29;17.80;99.90
11925;DHT22;6022;48.768;18.608;2023-07-22T02:31:58;18.00;99.90
11925;DHT22;6022;48.768;18.608;2023-07-22T02:34:27;17.60;99.90
11925;DHT22;6022;48.768;18.608;2023-07-22T02:36:55;17.90;99.90
11925;DHT22;6022;48.768;18.608;2023-07-22T02:39:22;18.00;99.90
11925;DHT22;6022;48.768;18.608;2023-07-22T02:41:49;18.00;99.90
11925;DHT22;6022;48.768;18.608;2023-07-22T02:44:17;18.00;99.90
11925;DHT22;6022;48.768;18.608;2023-07-22T02:46:45;18.00;99.90
11925;DHT22;6022;48.768;18.608;2023-07-22T02:49:12;17.90;99.90
11925;DHT22;6022;48.768;18.608;2023-07-22T02:51:40;18.00;99.90
11925;DHT22;6022;48.768;18.608;2023-07-22T02:54:07;18.00;99.90
11925;DHT22;6022;48.768;18.608;2023-07-22T02:56:35;18.10;99.90
11925;DHT22;6022;48.768;18.608;2023-07-22T02:59:03;18.00;99.90
11925;DHT22;6022;48.768;18.608;2023-07-22T03:01:33;18.00;99.90
11925;DHT22;6022;48.768;18.608;2023-07-22T03:04:00;18.20;99.90
11925;DHT22;6022;48.768;18.608;2023-07-22T03:06:29;17.80;99.90
11925;DHT22;6022;48.768;18.608;2023-07-22T03:09:09;18.00;99.90
11925;DHT22;6022;48.768;18.608;2023-07-22T03:11:45;18.30;99.90
11925;DHT22;6022;48.768;18.608;2023-07-22T03:14:12;18.00;99.90
11925;DHT22;6022;48.768;18.608;2023-07-22T03:16:41;18.10;99.90
11925;DHT22;6022;48.768;18.608;2023-07-22T03:19:10;18.10;99.90
11925;DHT22;6022;48.768;18.608;2023-07-22T03:21:38;18.10;99.90
11925;DHT22;6022;48.768;18.608;2023-07-22T03:24:05;18.10;99.90
11925;DHT22;6022;48.768;18.608;2023-07-22T03:26:34;18.10;99.90
11925;DHT22;6022;48.768;18.608;2023-07-22T03:29:04;18.10;99.90
11925;DHT22;6022;48.768;18.608;2023-07-22T03:31:40;18.10;99.90
11925;DHT22;6022;48.768;18.608;2023-07-22T03:34:10;18.00;99.90
11925;DHT22;6022;48.768;18.608;2023-07-22T03:36:40;18.00;99.90
11925;DHT22;6022;48.768;18.608;2023-07-22T03:39:10;18.00;99.90
11925;DHT22;6022;48.768;18.608;2023-07-22T03:41:37;17.90;99.90
11925;DHT22;6022;48.768;18.608;2023-07-22T03:44:04;18.10;99.90
11925;DHT22;6022;48.768;18.608;2023-07-22T03:46:32;18.10;99.90
11925;DHT22;6022;48.768;18.608;2023-07-22T03:49:00;18.10;99.90
11925;DHT22;6022;48.768;18.608;2023-07-22T03:51:28;18.20;99.90
11925;DHT22;6022;48.768;18.608;2023-07-22T03:54:00;18.40;99.90
11925;DHT22;6022;48.768;18.608;2023-07-22T03:58:59;18.30;99.90
11925;DHT22;6022;48.768;18.608;2023-07-22T04:01:26;18.60;99.90
11925;DHT22;6022;48.768;18.608;2023-07-22T04:03:54;18.30;99.90
11925;DHT22;6022;48.768;18.608;2023-07-22T04:06:21;18.40;99.90
11925;DHT22;6022;48.768;18.608;2023-07-22T04:08:54;18.40;99.90
11925;DHT22;6022;48.768;18.608;2023-07-22T04:11:22;18.50;99.90
11925;DHT22;6022;48.768;18.608;2023-07-22T04:13:50;18.50;99.90
11925;DHT22;6022;48.768;18.608;2023-07-22T04:16:17;18.60;99.90
11925;DHT22;6022;48.768;18.608;2023-07-22T04:18:48;18.60;99.90
11925;DHT22;6022;48.768;18.608;2023-07-22T04:21:18;18.80;99.90
11925;DHT22;6022;48.768;18.608;2023-07-22T04:23:54;18.70;99.90
11925;DHT22;6022;48.768;18.608;2023-07-22T04:26:21;18.80;99.90
11925;DHT22;6022;48.768;18.608;2023-07-22T04:28:51;18.80;99.90
11925;DHT22;6022;48.768;18.608;2023-07-22T04:31:26;18.80;99.90
11925;DHT22;6022;48.768;18.608;2023-07-22T04:33:57;19.40;99.90
11925;DHT22;6022;48.768;18.608;2023-07-22T04:36:27;19.30;99.90
11925;DHT22;6022;48.768;18.608;2023-07-22T04:39:03;19.50;99.90
11925;DHT22;6022;48.768;18.608;2023-07-22T04:41:32;19.60;99.90
11925;DHT22;6022;48.768;18.608;2023-07-22T04:44:02;19.60;99.90
11925;DHT22;6022;48.768;18.608;2023-07-22T04:46:32;19.80;99.90
11925;DHT22;6022;48.768;18.608;2023-07-22T04:49:10;19.50;99.90
11925;DHT22;6022;48.768;18.608;2023-07-22T04:51:37;19.50;99.90
11925;DHT22;6022;48.768;18.608;2023-07-22T04:54:04;18.40;99.90
11925;DHT22;6022;48.768;18.608;2023-07-22T04:56:35;19.20;99.90
11925;DHT22;6022;48.768;18.608;2023-07-22T04:59:02;19.40;99.90
11925;DHT22;6022;48.768;18.608;2023-07-22T05:01:30;19.30;99.90
11925;DHT22;6022;48.768;18.608;2023-07-22T05:03:57;19.30;99.90
11925;DHT22;6022;48.768;18.608;2023-07-22T05:06:24;19.10;99.90
11925;DHT22;6022;48.768;18.608;2023-07-22T05:08:52;19.30;99.90
11925;DHT22;6022;48.768;18.608;2023-07-22T05:11:19;19.80;99.90
11925;DHT22;6022;48.768;18.608;2023-07-22T05:13:46;19.90;99.90
11925;DHT22;6022;48.768;18.608;2023-07-22T05:16:17;20.90;99.90
11925;DHT22;6022;48.768;18.608;2023-07-22T05:18:45;21.50;99.90
11925;DHT22;6022;48.768;18.608;2023-07-22T05:21:12;21.50;99.90
11925;DHT22;6022;48.768;18.608;2023-07-22T05:23:39;22.10;99.90
11925;DHT22;6022;48.768;18.608;2023-07-22T05:26:06;22.20;99.90
11925;DHT22;6022;48.768;18.608;2023-07-22T05:28:33;22.00;99.90
11925;DHT22;6022;48.768;18.608;2023-07-22T05:31:01;22.50;99.90
11925;DHT22;6022;48.768;18.608;2023-07-22T05:33:28;22.50;99.90
11925;DHT22;6022;48.768;18.608;2023-07-22T05:35:56;22.20;99.90
11925;DHT22;6022;48.768;18.608;2023-07-22T05:38:23;21.70;99.90
11925;DHT22;6022;48.768;18.608;2023-07-22T05:40:55;21.60;99.90
11925;DHT22;6022;48.768;18.608;2023-07-22T05:43:27;22.30;99.90
11925;DHT22;6022;48.768;18.608;2023-07-22T05:45:57;24.30;99.90
11925;DHT22;6022;48.768;18.608;2023-07-22T05:48:25;25.30;99.90
11925;DHT22;6022;48.768;18.608;2023-07-22T05:50:54;25.30;99.90
11925;DHT22;6022;48.768;18.608;2023-07-22T05:53:25;27.50;99.90
11925;DHT22;6022;48.768;18.608;2023-07-22T05:55:53;27.90;99.90
11925;DHT22;6022;48.768;18.608;2023-07-22T05:58:30;28.00;99.90
11925;DHT22;6022;48.768;18.608;2023-07-22T06:00:57;28.70;99.90
11925;DHT22;6022;48.768;18.608;2023-07-22T06:03:25;29.00;99.90
11925;DHT22;6022;48.768;18.608;2023-07-22T06:05:57;29.10;99.90
11925;DHT22;6022;48.768;18.608;2023-07-22T06:08:25;29.70;99.90
11925;DHT22;6022;48.768;18.608;2023-07-22T06:10:53;28.30;99.90
11925;DHT22;6022;48.768;18.608;2023-07-22T06:13:20;27.80;99.90
11925;DHT22;6022;48.768;18.608;2023-07-22T06:15:47;25.60;99.90
11925;DHT22;6022;48.768;18.608;2023-07-22T06:18:22;25.40;99.90
11925;DHT22;6022;48.768;18.608;2023-07-22T06:20:50;23.80;99.90
11925;DHT22;6022;48.768;18.608;2023-07-22T06:23:18;23.70;99.90
11925;DHT22;6022;48.768;18.608;2023-07-22T06:25:47;23.00;99.90
11925;DHT22;6022;48.768;18.608;2023-07-22T06:28:17;22.60;99.90
11925;DHT22;6022;48.768;18.608;2023-07-22T06:31:10;22.40;99.90
11925;DHT22;6022;48.768;18.608;2023-07-22T06:33:37;22.30;99.90
11925;DHT22;6022;48.768;18.608;2023-07-22T06:36:05;22.20;99.90
11925;DHT22;6022;48.768;18.608;2023-07-22T06:38:32;21.90;99.90
11925;DHT22;6022;48.768;18.608;2023-07-22T06:41:00;21.90;99.90
11925;DHT22;6022;48.768;18.608;2023-07-22T06:43:29;22.20;99.90
11925;DHT22;6022;48.768;18.608;2023-07-22T06:45:58;22.70;99.90
11925;DHT22;6022;48.768;18.608;2023-07-22T06:48:29;22.80;99.90
11925;DHT22;6022;48.768;18.608;2023-07-22T06:50:56;23.00;99.90
11925;DHT22;6022;48.768;18.608;2023-07-22T06:53:24;23.30;99.90
11925;DHT22;6022;48.768;18.608;2023-07-22T06:55:52;23.60;99.90
11925;DHT22;6022;48.768;18.608;2023-07-22T06:58:20;23.60;99.90
11925;DHT22;6022;48.768;18.608;2023-07-22T07:00:54;23.10;99.90
11925;DHT22;6022;48.768;18.608;2023-07-22T07:03:23;22.90;99.90
11925;DHT22;6022;48.768;18.608;2023-07-22T07:05:56;22.50;99.90
11925;DHT22;6022;48.768;18.608;2023-07-22T07:08:25;22.70;99.90
11925;DHT22;6022;48.768;18.608;2023-07-22T07:10:52;22.60;99.90
11925;DHT22;6022;48.768;18.608;2023-07-22T07:13:24;22.50;99.90
11925;DHT22;6022;48.768;18.608;2023-07-22T07:15:51;22.30;99.90
11925;DHT22;6022;48.768;18.608;2023-07-22T07:18:19;22.70;99.90
11925;DHT22;6022;48.768;18.608;2023-07-22T07:21:08;23.60;99.90
11925;DHT22;6022;48.768;18.608;2023-07-22T07:23:43;27.30;99.90
11925;DHT22;6022;48.768;18.608;2023-07-22T07:26:14;27.50;99.90
11925;DHT22;6022;48.768;18.608;2023-07-22T07:28:42;28.80;99.90
11925;DHT22;6022;48.768;18.608;2023-07-22T07:31:10;29.70;99.90
11925;DHT22;6022;48.768;18.608;2023-07-22T07:33:40;30.70;99.90
11925;DHT22;6022;48.768;18.608;2023-07-22T07:36:11;31.30;99.90
11925;DHT22;6022;48.768;18.608;2023-07-22T07:38:38;30.40;99.90
11925;DHT22;6022;48.768;18.608;2023-07-22T07:41:06;30.20;99.90
11925;DHT22;6022;48.768;18.608;2023-07-22T07:43:39;30.90;99.60
11925;DHT22;6022;48.768;18.608;2023-07-22T07:46:22;31.00;99.90
11925;DHT22;6022;48.768;18.608;2023-07-22T07:48:53;32.00;93.40
11925;DHT22;6022;48.768;18.608;2023-07-22T07:51:24;32.60;92.40
11925;DHT22;6022;48.768;18.608;2023-07-22T07:53:59;32.70;92.80
11925;DHT22;6022;48.768;18.608;2023-07-22T07:56:28;33.70;88.60
11925;DHT22;6022;48.768;18.608;2023-07-22T07:59:01;33.40;80.10
11925;DHT22;6022;48.768;18.608;2023-07-22T08:01:36;32.40;78.20
11925;DHT22;6022;48.768;18.608;2023-07-22T08:04:11;32.30;79.10
11925;DHT22;6022;48.768;18.608;2023-07-22T08:06:48;32.40;78.60
11925;DHT22;6022;48.768;18.608;2023-07-22T08:09:21;32.20;78.60
11925;DHT22;6022;48.768;18.608;2023-07-22T08:11:52;32.50;79.00
11925;DHT22;6022;48.768;18.608;2023-07-22T08:14:22;32.50;78.20
11925;DHT22;6022;48.768;18.608;2023-07-22T08:16:51;33.40;75.50
11925;DHT22;6022;48.768;18.608;2023-07-22T08:19:22;33.50;75.50
11925;DHT22;6022;48.768;18.608;2023-07-22T08:21:50;32.30;76.20
11925;DHT22;6022;48.768;18.608;2023-07-22T08:24:22;31.60;77.80
11925;DHT22;6022;48.768;18.608;2023-07-22T08:26:50;31.90;80.80
11925;DHT22;6022;48.768;18.608;2023-07-22T08:29:21;31.80;78.70
11925;DHT22;6022;48.768;18.608;2023-07-22T08:31:49;32.50;76.60
11925;DHT22;6022;48.768;18.608;2023-07-22T08:34:16;32.40;77.10
11925;DHT22;6022;48.768;18.608;2023-07-22T08:36:46;32.10;74.00
11925;DHT22;6022;48.768;18.608;2023-07-22T08:39:15;31.80;73.90
11925;DHT22;6022;48.768;18.608;2023-07-22T08:41:48;31.50;74.50
11925;DHT22;6022;48.768;18.608;2023-07-22T08:44:23;31.00;76.10
11925;DHT22;6022;48.768;18.608;2023-07-22T08:46:59;30.60;77.00
11925;DHT22;6022;48.768;18.608;2023-07-22T08:49:27;28.90;81.80
11925;DHT22;6022;48.768;18.608;2023-07-22T08:51:59;29.60;84.00
11925;DHT22;6022;48.768;18.608;2023-07-22T08:54:35;29.70;83.60
11925;DHT22;6022;48.768;18.608;2023-07-22T08:57:04;30.60;80.30
11925;DHT22;6022;48.768;18.608;2023-07-22T08:59:32;30.30;76.50
11925;DHT22;6022;48.768;18.608;2023-07-22T09:02:01;30.50;78.60
11925;DHT22;6022;48.768;18.608;2023-07-22T09:04:32;30.10;75.60
11925;DHT22;6022;48.768;18.608;2023-07-22T09:07:03;29.10;76.20
11925;DHT22;6022;48.768;18.608;2023-07-22T09:09:34;29.00;77.30
11925;DHT22;6022;48.768;18.608;2023-07-22T09:12:02;29.00;79.10
11925;DHT22;6022;48.768;18.608;2023-07-22T09:14:31;29.90;73.70
11925;DHT22;6022;48.768;18.608;2023-07-22T09:17:04;30.00;74.10
11925;DHT22;6022;48.768;18.608;2023-07-22T09:19:36;30.00;70.00
11925;DHT22;6022;48.768;18.608;2023-07-22T09:22:03;29.70;74.60
11925;DHT22;6022;48.768;18.608;2023-07-22T09:24:30;29.40;73.60
11925;DHT22;6022;48.768;18.608;2023-07-22T09:26:58;29.40;74.50
11925;DHT22;6022;48.768;18.608;2023-07-22T09:29:39;29.10;73.90
11925;DHT22;6022;48.768;18.608;2023-07-22T09:32:11;29.10;74.50
11925;DHT22;6022;48.768;18.608;2023-07-22T09:34:54;29.70;72.50
11925;DHT22;6022;48.768;18.608;2023-07-22T09:37:36;29.30;72.60
11925;DHT22;6022;48.768;18.608;2023-07-22T09:42:48;28.90;73.70
11925;DHT22;6022;48.768;18.608;2023-07-22T09:45:22;29.00;74.10
11925;DHT22;6022;48.768;18.608;2023-07-22T09:47:52;29.20;72.90
11925;DHT22;6022;48.768;18.608;2023-07-22T09:50:26;29.40;71.60
11925;DHT22;6022;48.768;18.608;2023-07-22T09:52:57;29.80;70.30
11925;DHT22;6022;48.768;18.608;2023-07-22T09:55:28;29.80;69.50
11925;DHT22;6022;48.768;18.608;2023-07-22T09:58:04;30.00;69.00
11925;DHT22;6022;48.768;18.608;2023-07-22T10:00:38;29.80;69.10
11925;DHT22;6022;48.768;18.608;2023-07-22T10:03:15;29.90;69.80
11925;DHT22;6022;48.768;18.608;2023-07-22T10:05:48;30.00;69.90
11925;DHT22;6022;48.768;18.608;2023-07-22T10:08:21;30.00;69.80
11925;DHT22;6022;48.768;18.608;2023-07-22T10:10:57;30.00;69.90
11925;DHT22;6022;48.768;18.608;2023-07-22T10:13:29;29.80;68.80
11925;DHT22;6022;48.768;18.608;2023-07-22T10:15:57;28.90;67.90
11925;DHT22;6022;48.768;18.608;2023-07-22T10:18:25;29.20;68.80
11925;DHT22;6022;48.768;18.608;2023-07-22T10:20:58;29.20;66.60
11925;DHT22;6022;48.768;18.608;2023-07-22T10:23:29;29.10;67.50
11925;DHT22;6022;48.768;18.608;2023-07-22T10:26:03;29.00;68.10
11925;DHT22;6022;48.768;18.608;2023-07-22T10:28:35;29.20;68.10
11925;DHT22;6022;48.768;18.608;2023-07-22T10:31:04;29.10;68.70
11925;DHT22;6022;48.768;18.608;2023-07-22T10:33:31;28.90;68.30
11925;DHT22;6022;48.768;18.608;2023-07-22T10:36:05;28.60;68.10
11925;DHT22;6022;48.768;18.608;2023-07-22T10:38:35;28.50;68.50
11925;DHT22;6022;48.768;18.608;2023-07-22T10:41:13;28.60;68.60
11925;DHT22;6022;48.768;18.608;2023-07-22T10:43:57;28.40;68.80
11925;DHT22;6022;48.768;18.608;2023-07-22T10:46:35;28.00;70.10
11925;DHT22;6022;48.768;18.608;2023-07-22T10:49:15;27.70;70.30
11925;DHT22;6022;48.768;18.608;2023-07-22T10:51:51;27.60;70.70
11925;DHT22;6022;48.768;18.608;2023-07-22T10:54:32;27.60;71.70
11925;DHT22;6022;48.768;18.608;2023-07-22T10:57:25;28.30;72.10
11925;DHT22;6022;48.768;18.608;2023-07-22T10:59:55;28.50;72.80
11925;DHT22;6022;48.768;18.608;2023-07-22T11:02:24;29.20;71.40
11925;DHT22;6022;48.768;18.608;2023-07-22T11:05:02;29.90;68.20
11925;DHT22;6022;48.768;18.608;2023-07-22T11:07:41;30.10;65.80
11925;DHT22;6022;48.768;18.608;2023-07-22T11:10:16;30.10;66.60
11925;DHT22;6022;48.768;18.608;2023-07-22T11:13:03;30.40;63.70
11925;DHT22;6022;48.768;18.608;2023-07-22T11:15:31;30.40;64.40
11925;DHT22;6022;48.768;18.608;2023-07-22T11:18:08;29.60;64.30
11925;DHT22;6022;48.768;18.608;2023-07-22T11:20:36;29.60;65.60
11925;DHT22;6022;48.768;18.608;2023-07-22T11:23:05;29.90;63.30
11925;DHT22;6022;48.768;18.608;2023-07-22T11:25:35;29.90;63.10
11925;DHT22;6022;48.768;18.608;2023-07-22T11:28:14;29.80;63.90
11925;DHT22;6022;48.768;18.608;2023-07-22T11:30:51;30.50;64.80
11925;DHT22;6022;48.768;18.608;2023-07-22T11:33:20;30.50;64.50
11925;DHT22;6022;48.768;18.608;2023-07-22T11:36:15;30.90;61.70
11925;DHT22;6022;48.768;18.608;2023-07-22T11:39:18;31.20;60.10
11925;DHT22;6022;48.768;18.608;2023-07-22T11:41:51;31.10;60.80
11925;DHT22;6022;48.768;18.608;2023-07-22T11:44:21;31.10;59.70
11925;DHT22;6022;48.768;18.608;2023-07-22T11:47:01;31.10;60.50
11925;DHT22;6022;48.768;18.608;2023-07-22T11:49:47;31.10;59.90
11925;DHT22;6022;48.768;18.608;2023-07-22T11:52:17;31.00;60.50
11925;DHT22;6022;48.768;18.608;2023-07-22T11:54:46;31.10;58.10
11925;DHT22;6022;48.768;18.608;2023-07-22T11:57:16;31.10;57.00
11925;DHT22;6022;48.768;18.608;2023-07-22T11:59:56;31.00;57.50
11925;DHT22;6022;48.768;18.608;2023-07-22T12:02:26;30.90;57.50
11925;DHT22;6022;48.768;18.608;2023-07-22T12:05:03;30.80;58.00
11925;DHT22;6022;48.768;18.608;2023-07-22T12:07:37;30.60;59.90
11925;DHT22;6022;48.768;18.608;2023-07-22T12:10:07;30.30;56.90
11925;DHT22;6022;48.768;18.608;2023-07-22T12:12:40;30.20;57.30
11925;DHT22;6022;48.768;18.608;2023-07-22T12:15:28;30.40;58.20
11925;DHT22;6022;48.768;18.608;2023-07-22T12:18:00;30.30;59.50
11925;DHT22;6022;48.768;18.608;2023-07-22T12:20:31;29.90;58.30
11925;DHT22;6022;48.768;18.608;2023-07-22T12:23:01;29.50;56.80
11925;DHT22;6022;48.768;18.608;2023-07-22T12:25:29;29.30;59.00
11925;DHT22;6022;48.768;18.608;2023-07-22T12:28:02;29.60;60.00
11925;DHT22;6022;48.768;18.608;2023-07-22T12:30:30;30.30;58.80
11925;DHT22;6022;48.768;18.608;2023-07-22T12:33:02;30.10;59.20
11925;DHT22;6022;48.768;18.608;2023-07-22T12:35:38;30.30;59.00
11925;DHT22;6022;48.768;18.608;2023-07-22T12:38:08;30.30;55.00
11925;DHT22;6022;48.768;18.608;2023-07-22T12:40:35;30.10;56.50
11925;DHT22;6022;48.768;18.608;2023-07-22T12:43:14;30.50;58.90
11925;DHT22;6022;48.768;18.608;2023-07-22T12:45:48;30.50;57.50
11925;DHT22;6022;48.768;18.608;2023-07-22T12:48:36;30.50;58.00
11925;DHT22;6022;48.768;18.608;2023-07-22T12:51:12;30.20;55.90
11925;DHT22;6022;48.768;18.608;2023-07-22T12:54:03;30.20;55.70
11925;DHT22;6022;48.768;18.608;2023-07-22T12:56:44;29.90;57.10
11925;DHT22;6022;48.768;18.608;2023-07-22T12:59:29;29.90;57.60
11925;DHT22;6022;48.768;18.608;2023-07-22T13:02:12;29.90;56.00
11925;DHT22;6022;48.768;18.608;2023-07-22T13:05:20;29.90;56.60
11925;DHT22;6022;48.768;18.608;2023-07-22T13:08:10;29.90;56.40
11925;DHT22;6022;48.768;18.608;2023-07-22T13:10:39;29.40;53.40
11925;DHT22;6022;48.768;18.608;2023-07-22T13:13:14;29.30;54.00
11925;DHT22;6022;48.768;18.608;2023-07-22T13:15:42;29.20;54.60
11925;DHT22;6022;48.768;18.608;2023-07-22T13:18:13;29.20;55.00
11925;DHT22;6022;48.768;18.608;2023-07-22T13:20:49;29.00;54.90
11925;DHT22;6022;48.768;18.608;2023-07-22T13:23:30;29.20;55.40
11925;DHT22;6022;48.768;18.608;2023-07-22T13:25:59;29.20;55.80
11925;DHT22;6022;48.768;18.608;2023-07-22T13:28:26;28.90;57.50
11925;DHT22;6022;48.768;18.608;2023-07-22T13:30:55;29.10;55.60
11925;DHT22;6022;48.768;18.608;2023-07-22T13:33:35;29.10;56.50
11925;DHT22;6022;48.768;18.608;2023-07-22T13:36:03;28.90;55.40
11925;DHT22;6022;48.768;18.608;2023-07-22T13:38:36;29.10;55.80
11925;DHT22;6022;48.768;18.608;2023-07-22T13:41:05;29.10;56.20
11925;DHT22;6022;48.768;18.608;2023-07-22T13:43:37;28.90;55.50
11925;DHT22;6022;48.768;18.608;2023-07-22T13:46:04;29.00;56.10
11925;DHT22;6022;48.768;18.608;2023-07-22T13:48:38;29.10;57.30
11925;DHT22;6022;48.768;18.608;2023-07-22T13:51:09;29.20;58.00
11925;DHT22;6022;48.768;18.608;2023-07-22T13:53:37;28.90;57.10
11925;DHT22;6022;48.768;18.608;2023-07-22T13:56:05;29.10;57.70
11925;DHT22;6022;48.768;18.608;2023-07-22T13:58:45;28.80;54.90
11925;DHT22;6022;48.768;18.608;2023-07-22T14:01:14;28.60;55.40
11925;DHT22;6022;48.768;18.608;2023-07-22T14:03:41;28.80;56.10
11925;DHT22;6022;48.768;18.608;2023-07-22T14:06:08;29.00;56.70
11925;DHT22;6022;48.768;18.608;2023-07-22T14:08:40;29.20;56.80
11925;DHT22;6022;48.768;18.608;2023-07-22T14:11:13;28.90;56.90
11925;DHT22;6022;48.768;18.608;2023-07-22T14:13:42;28.60;55.70
11925;DHT22;6022;48.768;18.608;2023-07-22T14:16:20;28.80;56.20
11925;DHT22;6022;48.768;18.608;2023-07-22T14:18:49;28.80;56.80
11925;DHT22;6022;48.768;18.608;2023-07-22T14:21:21;28.80;57.00
11925;DHT22;6022;48.768;18.608;2023-07-22T14:23:48;28.50;56.80
11925;DHT22;6022;48.768;18.608;2023-07-22T14:26:16;28.80;58.30
11925;DHT22;6022;48.768;18.608;2023-07-22T14:28:43;28.80;58.90
11925;DHT22;6022;48.768;18.608;2023-07-22T14:31:10;28.60;58.30
11925;DHT22;6022;48.768;18.608;2023-07-22T14:33:40;28.70;57.60
11925;DHT22;6022;48.768;18.608;2023-07-22T14:36:12;28.50;58.10
11925;DHT22;6022;48.768;18.608;2023-07-22T14:38:39;28.40;57.00
11925;DHT22;6022;48.768;18.608;2023-07-22T14:41:07;28.20;57.20
11925;DHT22;6022;48.768;18.608;2023-07-22T14:43:36;28.20;58.40
11925;DHT22;6022;48.768;18.608;2023-07-22T14:46:04;27.90;58.00
11925;DHT22;6022;48.768;18.608;2023-07-22T14:48:31;27.80;58.20
11925;DHT22;6022;48.768;18.608;2023-07-22T14:50:58;27.90;58.90
11925;DHT22;6022;48.768;18.608;2023-07-22T14:53:27;27.70;59.30
11925;DHT22;6022;48.768;18.608;2023-07-22T14:55:54;27.80;57.80
11925;DHT22;6022;48.768;18.608;2023-07-22T14:58:24;27.70;58.10
11925;DHT22;6022;48.768;18.608;2023-07-22T15:00:51;27.70;59.10
11925;DHT22;6022;48.768;18.608;2023-07-22T15:03:19;27.60;59.20
11925;DHT22;6022;48.768;18.608;2023-07-22T15:05:51;27.70;58.70
11925;DHT22;6022;48.768;18.608;2023-07-22T15:08:19;27.70;60.30
11925;DHT22;6022;48.768;18.608;2023-07-22T15:10:49;28.10;59.50
11925;DHT22;6022;48.768;18.608;2023-07-22T15:13:16;27.80;59.50
11925;DHT22;6022;48.768;18.608;2023-07-22T15:15:46;27.80;58.00
11925;DHT22;6022;48.768;18.608;2023-07-22T15:18:14;27.90;58.90
11925;DHT22;6022;48.768;18.608;2023-07-22T15:20:42;27.90;59.60
11925;DHT22;6022;48.768;18.608;2023-07-22T15:23:10;27.90;58.50
11925;DHT22;6022;48.768;18.608;2023-07-22T15:25:38;27.90;59.70
11925;DHT22;6022;48.768;18.608;2023-07-22T15:28:07;27.70;59.10
11925;DHT22;6022;48.768;18.608;2023-07-22T15:30:37;27.40;58.80
11925;DHT22;6022;48.768;18.608;2023-07-22T15:33:06;27.60;59.80
11925;DHT22;6022;48.768;18.608;2023-07-22T15:35:33;27.50;60.40
11925;DHT22;6022;48.768;18.608;2023-07-22T15:38:05;27.50;62.10
11925;DHT22;6022;48.768;18.608;2023-07-22T15:40:36;27.40;60.60
11925;DHT22;6022;48.768;18.608;2023-07-22T15:43:04;27.20;58.70
11925;DHT22;6022;48.768;18.608;2023-07-22T15:45:31;27.20;59.40
11925;DHT22;6022;48.768;18.608;2023-07-22T15:47:59;27.00;59.90
11925;DHT22;6022;48.768;18.608;2023-07-22T15:50:27;27.20;60.00
11925;DHT22;6022;48.768;18.608;2023-07-22T15:52:54;27.00;60.70
11925;DHT22;6022;48.768;18.608;2023-07-22T15:55:32;26.90;61.90
11925;DHT22;6022;48.768;18.608;2023-07-22T15:58:02;26.70;61.60
11925;DHT22;6022;48.768;18.608;2023-07-22T16:00:31;26.70;62.10